Time;durP1;ratioP1;P1;durP2;ratioP2;P2;SDS_P1;SDS_P2;PMS_P1;PMS_P2;Temp;Humidity;BMP_temperature;BMP_pressure;BME280_temperature;BME280_humidity;BME280_pressure;Samples;Min_cycle;Max_cycle;Signal;HPM_P1;HPM_P2
2022/05/30 00:01:58;;;;;;;1.05;1.00;;;20.70;59.70;;;;;;5069727;28;20048;-59
2022/05/30 00:04:24;;;;;;;0.82;0.82;;;20.70;59.80;;;;;;5065018;28;20652;-59
2022/05/30 00:06:50;;;;;;;1.30;0.90;;;20.70;59.80;;;;;;5064894;28;20036;-59
2022/05/30 00:09:16;;;;;;;1.00;0.82;;;20.70;60.30;;;;;;5064518;28;20053;-59
2022/05/30 00:11:42;;;;;;;1.00;1.00;;;20.70;60.20;;;;;;5064631;28;20049;-59
2022/05/30 00:14:08;;;;;;;0.80;0.80;;;20.70;60.20;;;;;;5065016;28;20123;-59
2022/05/30 00:16:34;;;;;;;1.20;1.10;;;20.70;60.40;;;;;;5064815;28;20029;-59
2022/05/30 00:19:00;;;;;;;1.20;1.13;;;20.80;60.30;;;;;;5064556;28;20036;-59
2022/05/30 00:21:26;;;;;;;1.20;1.10;;;20.80;60.00;;;;;;5064186;28;20506;-59
2022/05/30 00:23:56;;;;;;;1.30;1.20;;;20.80;59.90;;;;;;5080319;28;20068;-59
2022/05/30 00:26:23;;;;;;;1.08;1.00;;;20.80;59.90;;;;;;5077355;28;20025;-59
2022/05/30 00:28:49;;;;;;;1.13;1.02;;;20.80;59.90;;;;;;5070025;28;20025;-59
2022/05/30 00:31:16;;;;;;;0.90;0.90;;;20.80;59.90;;;;;;5056188;28;20078;-59
2022/05/30 00:33:42;;;;;;;1.00;1.00;;;20.80;59.90;;;;;;5064364;28;20468;-59
2022/05/30 00:36:09;;;;;;;1.65;1.10;;;20.80;60.10;;;;;;5064175;28;20037;-58
2022/05/30 00:38:35;;;;;;;1.40;1.30;;;20.90;60.10;;;;;;5064201;28;20039;-59
2022/05/30 00:41:01;;;;;;;0.85;0.85;;;20.90;60.20;;;;;;5064039;28;20033;-59
2022/05/30 00:43:33;;;;;;;1.30;1.20;;;20.90;60.30;;;;;;5086776;28;20029;-59
2022/05/30 00:46:00;;;;;;;1.30;1.17;;;20.90;60.30;;;;;;5084291;28;20028;-58
2022/05/30 00:48:30;;;;;;;;;;;21.00;60.50;;;;;;5084378;28;20537;-59
2022/05/30 00:51:00;;;;;;;1.05;0.90;;;20.90;60.30;;;;;;5065507;28;19916;-58
2022/05/30 00:53:27;;;;;;;1.45;0.90;;;20.90;60.50;;;;;;5084075;28;20035;-59
2022/05/30 00:55:53;;;;;;;1.02;1.00;;;20.90;60.60;;;;;;5062620;28;20020;-59
2022/05/30 00:58:19;;;;;;;1.20;1.10;;;21.00;60.70;;;;;;5047577;28;20063;-59
2022/05/30 01:00:45;;;;;;;1.15;1.05;;;21.00;60.90;;;;;;5048343;28;20033;-59
2022/05/30 01:08:40;;;;;;;1.27;1.15;;;21.10;61.10;;;;;;5095542;28;20554;-59
2022/05/30 01:11:07;;;;;;;1.48;1.00;;;21.10;61.10;;;;;;5092477;28;20032;-59
2022/05/30 01:13:33;;;;;;;1.00;1.00;;;21.10;61.10;;;;;;5083662;28;20115;-59
2022/05/30 01:15:59;;;;;;;1.20;1.10;;;21.20;61.10;;;;;;5083617;28;20025;-59
2022/05/30 01:18:32;;;;;;;0.95;0.95;;;21.20;61.20;;;;;;5083519;28;20032;-59
2022/05/30 01:21:22;;;;;;;1.30;1.20;;;21.20;61.20;;;;;;5065248;28;20036;-59
2022/05/30 01:24:03;;;;;;;0.90;0.90;;;21.20;61.20;;;;;;5083586;28;20028;-59
2022/05/30 01:26:48;;;;;;;1.20;1.10;;;21.20;61.20;;;;;;5071609;28;20801;-59
2022/05/30 01:29:20;;;;;;;1.17;1.08;;;21.30;61.20;;;;;;5083041;28;20420;-59
2022/05/30 01:31:46;;;;;;;1.02;0.93;;;21.30;61.20;;;;;;5068611;28;20037;-59
2022/05/30 01:34:13;;;;;;;1.00;1.00;;;21.30;61.10;;;;;;5063357;28;20081;-59
2022/05/30 01:36:39;;;;;;;1.20;1.10;;;21.30;61.10;;;;;;5095634;28;20028;-59
2022/05/30 01:39:05;;;;;;;1.10;1.02;;;21.30;61.10;;;;;;5103466;28;20507;-59
2022/05/30 01:41:33;;;;;;;1.27;1.17;;;21.40;61.20;;;;;;5084908;28;20573;-59
2022/05/30 01:43:59;;;;;;;;;;;21.40;61.30;;;;;;5103580;28;20024;-59
2022/05/30 01:46:26;;;;;;;1.00;1.00;;;21.40;61.20;;;;;;5103399;28;19907;-59
2022/05/30 01:48:52;;;;;;;1.00;1.00;;;21.40;61.20;;;;;;5084880;28;20032;-59
2022/05/30 01:51:19;;;;;;;1.17;1.10;;;21.40;61.20;;;;;;5082531;28;20032;-59
2022/05/30 01:53:46;;;;;;;1.20;1.10;;;21.40;61.30;;;;;;5082600;28;20040;-58
2022/05/30 01:56:14;;;;;;;0.93;0.93;;;21.50;61.30;;;;;;5076700;28;20037;-59
2022/05/30 01:58:40;;;;;;;1.77;1.30;;;21.50;61.30;;;;;;5067601;28;20035;-58
2022/05/30 02:01:16;;;;;;;1.30;1.20;;;21.50;61.30;;;;;;5081515;28;20782;-59
2022/05/30 02:03:44;;;;;;;1.20;1.10;;;21.50;61.30;;;;;;5082106;28;20028;-59
2022/05/30 02:06:10;;;;;;;2.55;1.27;;;21.60;61.30;;;;;;5082733;28;20110;-59
2022/05/30 02:08:36;;;;;;;1.02;1.02;;;21.60;61.10;;;;;;5082602;28;20032;-59
2022/05/30 02:11:03;;;;;;;1.38;1.27;;;21.50;61.10;;;;;;5082475;28;20032;-60
2022/05/30 02:13:29;;;;;;;1.23;1.13;;;21.60;61.10;;;;;;5064705;28;20029;-59
2022/05/30 02:18:40;;;;;;;1.33;1.23;;;21.60;61.00;;;;;;5082504;28;20043;-59
2022/05/30 02:21:06;;;;;;;0.95;0.95;;;21.60;61.00;;;;;;5081784;28;20071;-59
2022/05/30 02:23:34;;;;;;;1.10;1.10;;;21.70;61.10;;;;;;5082339;28;20074;-59
2022/05/30 02:26:00;;;;;;;1.20;1.10;;;21.70;61.10;;;;;;5077969;28;20028;-59
2022/05/30 02:28:27;;;;;;;0.98;0.98;;;21.70;61.20;;;;;;5064975;28;20056;-59
2022/05/30 02:30:53;;;;;;;1.17;1.08;;;21.70;61.10;;;;;;5081079;28;20532;-59
2022/05/30 02:38:49;;;;;;;1.02;1.02;;;21.70;61.20;;;;;;5102841;28;20388;-59
2022/05/30 02:41:17;;;;;;;1.40;1.30;;;21.70;61.20;;;;;;5102049;28;20040;-59
2022/05/30 02:43:43;;;;;;;1.13;1.02;;;21.80;61.30;;;;;;5102615;28;20669;-59
2022/05/30 02:46:09;;;;;;;1.15;1.13;;;21.80;61.20;;;;;;5102298;28;20032;-59
2022/05/30 02:48:35;;;;;;;1.20;1.10;;;21.80;61.10;;;;;;5086717;28;20025;-59
2022/05/30 02:51:01;;;;;;;1.30;1.20;;;21.80;61.00;;;;;;5081922;28;20062;-59
2022/05/30 02:53:27;;;;;;;1.20;1.10;;;21.80;60.90;;;;;;5081886;28;20115;-59
2022/05/30 02:55:54;;;;;;;1.23;1.13;;;21.80;60.80;;;;;;5078605;28;20490;-59
2022/05/30 02:58:20;;;;;;;1.27;1.20;;;21.80;60.80;;;;;;5045983;28;20086;-59
2022/05/30 03:00:46;;;;;;;1.40;1.30;;;21.80;60.70;;;;;;5075363;28;20097;-59
2022/05/30 03:03:12;;;;;;;1.30;1.20;;;21.90;60.70;;;;;;5062152;28;20025;-59
2022/05/30 03:05:38;;;;;;;1.73;1.27;;;21.90;60.80;;;;;;5061859;28;20849;-59
2022/05/30 03:08:06;;;;;;;1.40;1.30;;;21.90;60.80;;;;;;5061876;28;20047;-59
2022/05/30 03:10:32;;;;;;;1.40;1.30;;;21.90;60.90;;;;;;5061656;28;20033;-58
2022/05/30 03:12:58;;;;;;;1.30;1.20;;;21.90;60.90;;;;;;5062029;28;20079;-59
2022/05/30 03:15:24;;;;;;;1.40;1.30;;;21.90;60.90;;;;;;5065706;28;20029;-59
2022/05/30 03:17:51;;;;;;;1.48;1.38;;;21.90;60.90;;;;;;5072936;28;20587;-59
2022/05/30 03:20:19;;;;;;;1.10;1.00;;;21.90;60.90;;;;;;5084972;28;20590;-59
2022/05/30 03:22:45;;;;;;;1.40;1.30;;;21.90;60.90;;;;;;5085540;28;20080;-59
2022/05/30 03:25:11;;;;;;;1.40;1.20;;;21.90;60.90;;;;;;5085654;28;20050;-59
2022/05/30 03:27:37;;;;;;;1.45;1.35;;;22.00;60.90;;;;;;5085682;28;20028;-59
2022/05/30 03:30:04;;;;;;;1.20;1.10;;;21.90;60.80;;;;;;5085135;28;20028;-59
2022/05/30 03:32:30;;;;;;;1.55;1.45;;;21.90;60.70;;;;;;5084799;28;20068;-59
2022/05/30 03:34:56;;;;;;;1.40;1.30;;;22.00;60.70;;;;;;5085596;28;20039;-59
2022/05/30 03:37:22;;;;;;;1.20;1.10;;;22.00;60.60;;;;;;5085232;28;20025;-59
2022/05/30 03:39:48;;;;;;;1.25;1.15;;;22.00;60.50;;;;;;5085013;28;20092;-58
2022/05/30 03:42:14;;;;;;;1.40;1.30;;;22.00;61.20;;;;;;5065073;28;20500;-59
2022/05/30 03:44:41;;;;;;;1.55;1.30;;;22.00;60.50;;;;;;5087907;28;20016;-60
2022/05/30 03:47:08;;;;;;;1.50;1.40;;;22.00;60.50;;;;;;5101873;28;20752;-59
2022/05/30 03:49:34;;;;;;;1.38;1.27;;;22.00;60.60;;;;;;5085368;28;20032;-59
2022/05/30 03:52:00;;;;;;;1.50;1.40;;;22.00;60.70;;;;;;5084905;28;20084;-59
2022/05/30 03:54:26;;;;;;;1.30;1.20;;;22.00;60.70;;;;;;5085148;28;20055;-59
2022/05/30 03:56:53;;;;;;;1.50;1.40;;;22.00;60.80;;;;;;5055616;28;20033;-58
2022/05/30 03:59:19;;;;;;;1.40;1.30;;;22.00;61.50;;;;;;5074942;28;20025;-58
2022/05/30 04:01:45;;;;;;;1.23;1.13;;;22.00;60.80;;;;;;5076868;28;20033;-58
2022/05/30 04:04:12;;;;;;;1.30;1.20;;;22.00;60.80;;;;;;5085007;28;20024;-60
2022/05/30 04:06:38;;;;;;;;;;;22.00;60.70;;;;;;5085170;28;20039;-60
2022/05/30 04:09:05;;;;;;;1.23;1.13;;;22.10;61.00;;;;;;5084977;28;19908;-59
2022/05/30 04:11:31;;;;;;;1.48;1.30;;;22.00;60.70;;;;;;5084335;28;20091;-59
2022/05/30 04:13:57;;;;;;;1.40;1.30;;;22.00;60.70;;;;;;5084804;28;20043;-59
2022/05/30 04:16:23;;;;;;;1.48;1.20;;;22.00;60.70;;;;;;5084689;28;20025;-59
2022/05/30 04:18:50;;;;;;;1.50;1.40;;;22.00;60.60;;;;;;5083046;28;20084;-59
2022/05/30 04:21:16;;;;;;;1.48;1.38;;;22.10;60.60;;;;;;5083949;28;20040;-58
2022/05/30 04:23:42;;;;;;;1.60;1.50;;;22.10;60.70;;;;;;5084381;28;20028;-59
2022/05/30 04:26:10;;;;;;;1.67;1.40;;;22.10;60.60;;;;;;5078256;28;20030;-59
2022/05/30 04:28:36;;;;;;;1.90;1.65;;;22.10;60.70;;;;;;5078117;28;20052;-59
2022/05/30 04:31:07;;;;;;;1.20;1.20;;;22.10;60.60;;;;;;5083156;28;20016;-59
2022/05/30 04:33:33;;;;;;;1.75;1.63;;;22.00;60.60;;;;;;5084084;28;20080;-59
2022/05/30 04:36:02;;;;;;;1.50;1.40;;;22.10;60.60;;;;;;5084565;28;20028;-59
2022/05/30 04:38:30;;;;;;;1.48;1.38;;;22.10;60.60;;;;;;5084049;28;20028;-59
2022/05/30 04:40:56;;;;;;;1.70;1.60;;;22.10;60.60;;;;;;5074462;28;20151;-59
2022/05/30 04:43:23;;;;;;;1.67;1.58;;;22.10;60.60;;;;;;5063960;28;20029;-59
2022/05/30 04:46:05;;;;;;;1.50;1.40;;;22.10;60.50;;;;;;5063747;28;20033;-59
2022/05/30 04:48:32;;;;;;;1.60;1.50;;;22.10;60.50;;;;;;5079328;28;20078;-59
2022/05/30 04:50:58;;;;;;;1.40;1.30;;;22.10;60.40;;;;;;5084199;28;20024;-59
2022/05/30 04:53:24;;;;;;;1.50;1.38;;;22.10;60.40;;;;;;5083507;28;20016;-59
2022/05/30 04:55:50;;;;;;;1.60;1.50;;;22.10;60.30;;;;;;5083264;28;20046;-59
2022/05/30 04:58:16;;;;;;;1.55;1.45;;;22.10;60.20;;;;;;5083879;28;20021;-59
2022/05/30 05:00:42;;;;;;;1.45;1.35;;;22.10;60.70;;;;;;5077903;28;20058;-59
2022/05/30 05:03:08;;;;;;;3.03;1.33;;;22.10;59.80;;;;;;5063671;28;20025;-59
2022/05/30 05:05:34;;;;;;;1.58;1.48;;;22.10;59.80;;;;;;5063564;28;20029;-59
2022/05/30 05:08:06;;;;;;;2.38;1.35;;;22.10;59.90;;;;;;5063360;28;20033;-59
2022/05/30 05:10:44;;;;;;;1.60;1.50;;;22.10;60.00;;;;;;5069747;28;20029;-59
2022/05/30 05:13:10;;;;;;;1.58;1.48;;;22.10;60.00;;;;;;5083335;28;20032;-59
2022/05/30 05:15:36;;;;;;;2.05;1.50;;;22.10;60.10;;;;;;5101232;28;20396;-59
2022/05/30 05:18:03;;;;;;;1.50;1.40;;;22.10;60.20;;;;;;5103890;28;20099;-59
2022/05/30 05:20:29;;;;;;;1.60;1.50;;;22.10;60.20;;;;;;5103319;28;20412;-59
2022/05/30 05:22:55;;;;;;;2.95;1.70;;;22.10;60.20;;;;;;5103313;28;20030;-59
2022/05/30 05:25:21;;;;;;;2.28;1.70;;;22.10;60.20;;;;;;5090125;28;20033;-59
2022/05/30 05:27:50;;;;;;;1.90;1.80;;;22.10;60.20;;;;;;5064318;28;20416;-59
2022/05/30 05:30:17;;;;;;;1.73;1.63;;;22.10;60.20;;;;;;5079889;28;20025;-60
2022/05/30 05:32:43;;;;;;;2.72;1.52;;;22.10;60.10;;;;;;5083049;28;20029;-59
2022/05/30 05:35:09;;;;;;;1.70;1.60;;;22.10;60.00;;;;;;5083022;28;20027;-59
2022/05/30 05:37:35;;;;;;;1.70;1.60;;;22.10;59.80;;;;;;5081850;28;20082;-59
2022/05/30 05:40:01;;;;;;;3.42;1.75;;;22.10;59.70;;;;;;5080978;28;20024;-59
2022/05/30 05:42:27;;;;;;;1.70;1.40;;;22.10;59.60;;;;;;5062958;28;20059;-59
2022/05/30 05:44:53;;;;;;;1.98;1.70;;;22.10;59.60;;;;;;5062580;28;20033;-61
2022/05/30 05:47:19;;;;;;;1.98;1.77;;;22.10;59.70;;;;;;5062874;28;20390;-59
2022/05/30 05:49:45;;;;;;;1.77;1.67;;;22.10;59.70;;;;;;5062932;28;20036;-59
2022/05/30 05:52:12;;;;;;;1.85;1.73;;;22.10;59.80;;;;;;5094679;28;20016;-59
2022/05/30 05:54:38;;;;;;;2.03;1.83;;;22.10;59.80;;;;;;5068073;28;20663;-59
2022/05/30 05:57:04;;;;;;;1.95;1.75;;;22.10;59.90;;;;;;5082441;28;20016;-59
2022/05/30 05:59:30;;;;;;;1.70;1.60;;;22.10;59.90;;;;;;5082733;28;20028;-59
2022/05/30 06:01:56;;;;;;;1.75;1.65;;;22.10;60.00;;;;;;5081829;28;20044;-59
2022/05/30 06:04:22;;;;;;;1.77;1.58;;;22.10;60.00;;;;;;5082424;28;20055;-59
2022/05/30 06:06:48;;;;;;;1.85;1.75;;;22.10;60.10;;;;;;5082379;28;20028;-59
2022/05/30 06:09:15;;;;;;;1.90;1.80;;;22.10;60.10;;;;;;5082597;28;20028;-59
2022/05/30 06:11:41;;;;;;;2.13;1.92;;;22.10;60.20;;;;;;5066349;28;20025;-58
2022/05/30 06:14:07;;;;;;;2.00;1.90;;;22.10;60.10;;;;;;5061945;28;20489;-59
2022/05/30 06:16:37;;;;;;;2.20;2.00;;;22.10;59.90;;;;;;5062320;28;20032;-59
2022/05/30 06:19:03;;;;;;;1.60;1.50;;;22.00;59.70;;;;;;5082223;28;20072;-58
2022/05/30 06:21:30;;;;;;;1.67;1.58;;;22.00;59.60;;;;;;5082278;28;20035;-59
2022/05/30 06:23:57;;;;;;;3.10;1.80;;;22.10;59.60;;;;;;5082022;28;20107;-59
2022/05/30 06:26:23;;;;;;;1.90;1.80;;;22.10;59.50;;;;;;5066134;28;20040;-59
2022/05/30 06:28:49;;;;;;;1.85;1.63;;;22.00;60.00;;;;;;5082205;28;20058;-59
2022/05/30 06:31:20;;;;;;;2.28;1.90;;;22.00;59.50;;;;;;5071971;28;20131;-59
2022/05/30 06:33:46;;;;;;;2.40;2.00;;;22.00;59.60;;;;;;5062305;28;20037;-59
2022/05/30 06:36:15;;;;;;;1.92;1.83;;;22.00;59.60;;;;;;5061895;28;20032;-59
2022/05/30 06:38:41;;;;;;;2.85;1.90;;;22.00;59.60;;;;;;5062134;28;20025;-59
2022/05/30 06:41:12;;;;;;;1.92;1.83;;;22.00;59.60;;;;;;5073399;28;20066;-59
2022/05/30 06:43:38;;;;;;;3.35;1.60;;;22.00;59.60;;;;;;5064660;28;20030;-59
2022/05/30 06:46:04;;;;;;;3.22;1.92;;;22.00;59.60;;;;;;5081819;28;20080;-58
2022/05/30 06:48:31;;;;;;;2.00;1.90;;;22.00;59.60;;;;;;5083028;28;20032;-58
2022/05/30 06:50:57;;;;;;;1.80;1.70;;;22.00;59.70;;;;;;5086257;28;20032;-58
2022/05/30 06:53:23;;;;;;;2.78;2.03;;;22.00;59.70;;;;;;5086339;28;20058;-59
2022/05/30 06:55:50;;;;;;;1.98;1.88;;;22.00;59.60;;;;;;5071853;28;20029;-59
2022/05/30 06:58:19;;;;;;;2.00;1.90;;;22.00;59.40;;;;;;5086041;28;20032;-59
2022/05/30 07:00:46;;;;;;;1.98;1.77;;;22.00;59.40;;;;;;5079757;28;20041;-58
2022/05/30 07:03:16;;;;;;;2.08;1.98;;;22.00;59.40;;;;;;5066124;28;20029;-59
2022/05/30 07:05:42;;;;;;;2.60;2.00;;;22.00;59.30;;;;;;5065759;28;20032;-59
2022/05/30 07:08:09;;;;;;;2.03;1.83;;;22.00;59.30;;;;;;5047691;28;20482;-59
2022/05/30 07:10:37;;;;;;;2.42;2.00;;;22.00;59.40;;;;;;5072842;28;20040;-59
2022/05/30 07:13:04;;;;;;;2.42;2.03;;;22.00;59.40;;;;;;5085980;28;20092;-59
2022/05/30 07:15:31;;;;;;;2.30;1.98;;;22.00;59.40;;;;;;5085625;28;20036;-59
2022/05/30 07:17:57;;;;;;;2.35;2.15;;;22.00;59.50;;;;;;5085673;28;20036;-59
2022/05/30 07:20:24;;;;;;;2.50;2.30;;;22.00;59.50;;;;;;5085452;28;20078;-59
2022/05/30 07:22:50;;;;;;;2.30;2.10;;;22.00;59.50;;;;;;5085707;28;20031;-59
2022/05/30 07:25:16;;;;;;;2.78;2.25;;;22.00;59.50;;;;;;5097647;28;20056;-59
2022/05/30 07:27:42;;;;;;;2.40;2.20;;;21.90;59.50;;;;;;5087057;28;20036;-59
2022/05/30 07:30:09;;;;;;;2.55;2.00;;;21.90;59.50;;;;;;5084587;28;20052;-58
2022/05/30 07:32:35;;;;;;;2.08;1.98;;;21.90;59.50;;;;;;5085356;28;20031;-59
2022/05/30 07:35:02;;;;;;;2.97;2.17;;;21.90;59.50;;;;;;5085417;28;20572;-59
2022/05/30 07:37:28;;;;;;;2.30;2.10;;;21.90;59.50;;;;;;5085072;28;20036;-59
2022/05/30 07:39:54;;;;;;;2.30;2.10;;;21.90;59.50;;;;;;5084445;28;20786;-59
2022/05/30 07:42:20;;;;;;;2.30;2.10;;;21.90;59.40;;;;;;5065235;28;20075;-59
2022/05/30 07:44:46;;;;;;;3.17;2.10;;;21.90;59.40;;;;;;5065344;28;20070;-59
2022/05/30 07:47:16;;;;;;;2.33;2.13;;;21.90;59.50;;;;;;5064655;28;20025;-58
2022/05/30 07:49:43;;;;;;;2.40;2.20;;;21.90;59.40;;;;;;5073230;28;20044;-59
2022/05/30 07:52:09;;;;;;;2.28;2.10;;;21.90;59.40;;;;;;5092668;28;20048;-59
2022/05/30 07:54:35;;;;;;;2.17;1.98;;;21.90;59.50;;;;;;5093697;28;20123;-59
2022/05/30 07:57:04;;;;;;;2.30;2.10;;;21.90;59.50;;;;;;5084492;28;20597;-58
2022/05/30 07:59:30;;;;;;;2.08;1.98;;;21.90;59.50;;;;;;5084762;28;20032;-58
2022/05/30 08:01:58;;;;;;;4.13;2.33;;;21.90;59.60;;;;;;5083935;28;20065;-58
2022/05/30 08:04:23;;;;;;;;;;;21.90;59.60;;;;;;5085668;28;20473;-59
2022/05/30 08:06:51;;;;;;;3.53;2.40;;;21.90;59.50;;;;;;5084601;28;19908;-59
2022/05/30 08:09:18;;;;;;;3.10;2.33;;;21.80;59.60;;;;;;5084899;28;20033;-58
2022/05/30 08:11:44;;;;;;;2.65;2.45;;;21.80;59.60;;;;;;5068674;28;20029;-59
2022/05/30 08:14:10;;;;;;;2.10;1.90;;;21.80;59.60;;;;;;5064828;28;20037;-58
2022/05/30 08:16:37;;;;;;;2.40;2.10;;;21.80;59.60;;;;;;5064152;28;20029;-59
2022/05/30 08:19:05;;;;;;;2.60;2.40;;;21.80;59.60;;;;;;5084084;28;20485;-59
2022/05/30 08:21:31;;;;;;;2.40;2.20;;;21.80;59.60;;;;;;5084536;28;20044;-59
2022/05/30 08:23:57;;;;;;;2.30;2.10;;;21.80;59.60;;;;;;5066599;28;20028;-59
2022/05/30 08:26:23;;;;;;;3.10;2.33;;;21.80;59.50;;;;;;5076740;28;20025;-59
2022/05/30 08:28:49;;;;;;;2.97;2.67;;;21.80;59.60;;;;;;5098725;28;20020;-59
2022/05/30 08:31:16;;;;;;;3.75;2.50;;;21.80;59.60;;;;;;5084670;28;20048;-59
2022/05/30 08:33:43;;;;;;;2.78;2.50;;;21.80;59.60;;;;;;5064489;28;20021;-59
2022/05/30 08:36:10;;;;;;;2.63;2.37;;;21.80;59.60;;;;;;5063968;28;20029;-60
2022/05/30 08:38:37;;;;;;;2.30;2.10;;;21.80;59.60;;;;;;5046505;28;20421;-59
2022/05/30 08:43:53;;;;;;;2.63;2.42;;;21.80;59.70;;;;;;5064443;28;20039;-58
2022/05/30 08:46:48;;;;;;;2.50;2.30;;;21.80;59.60;;;;;;5045953;28;20040;-58
2022/05/30 08:49:22;;;;;;;2.55;2.35;;;21.80;59.60;;;;;;5064176;28;20127;-59
2022/05/30 08:52:10;;;;;;;2.50;2.30;;;21.80;59.70;;;;;;5046318;28;20028;-58
2022/05/30 08:54:42;;;;;;;2.67;2.47;;;21.70;59.60;;;;;;5070467;28;20591;-58
2022/05/30 08:57:15;;;;;;;2.50;2.22;;;21.70;59.60;;;;;;5069765;28;20028;-59
2022/05/30 08:59:51;;;;;;;3.03;2.67;;;21.70;59.60;;;;;;5063862;28;20120;-58
2022/05/30 09:02:45;;;;;;;3.85;2.40;;;21.70;59.60;;;;;;5064080;28;20033;-57
2022/05/30 09:05:19;;;;;;;2.80;2.60;;;21.70;59.60;;;;;;5046202;28;20025;-58
2022/05/30 09:07:49;;;;;;;2.60;2.40;;;21.70;59.70;;;;;;5063611;28;20033;-58
2022/05/30 09:10:31;;;;;;;2.92;2.63;;;21.70;59.70;;;;;;5068043;28;20068;-58
2022/05/30 09:13:43;;;;;;;3.15;2.67;;;21.70;59.70;;;;;;5050031;28;20088;-57
2022/05/30 09:16:34;;;;;;;3.20;2.85;;;21.70;59.70;;;;;;5079450;28;20039;-57
2022/05/30 09:19:01;;;;;;;3.28;2.97;;;21.70;59.70;;;;;;5065300;28;20044;-57
2022/05/30 09:21:29;;;;;;;4.25;2.90;;;21.70;59.70;;;;;;5083519;28;20150;-56
2022/05/30 09:23:55;;;;;;;2.92;2.63;;;21.70;59.70;;;;;;5083384;28;20028;-56
2022/05/30 09:26:37;;;;;;;2.90;2.33;;;21.70;59.70;;;;;;5076400;28;20033;-57
2022/05/30 09:29:06;;;;;;;2.67;2.47;;;21.70;59.80;;;;;;5046763;28;20048;-56
2022/05/30 09:32:14;;;;;;;2.95;2.67;;;21.70;59.80;;;;;;5075619;28;20058;-57
2022/05/30 09:34:46;;;;;;;3.05;2.75;;;21.70;59.80;;;;;;5081999;28;20034;-57
2022/05/30 09:37:26;;;;;;;2.60;2.40;;;21.70;59.80;;;;;;5103438;28;20032;-57
2022/05/30 09:39:52;;;;;;;3.08;2.78;;;21.60;59.80;;;;;;5103630;28;20020;-57
2022/05/30 09:42:37;;;;;;;2.50;2.30;;;21.60;59.80;;;;;;5103371;28;20036;-56
2022/05/30 09:45:11;;;;;;;2.83;2.63;;;21.60;59.80;;;;;;5068428;28;20016;-57
2022/05/30 09:47:38;;;;;;;2.75;2.55;;;21.60;59.80;;;;;;5082920;28;20025;-56
2022/05/30 09:50:20;;;;;;;3.60;2.80;;;21.60;59.80;;;;;;5065060;28;20035;-57
2022/05/30 09:52:46;;;;;;;3.17;2.88;;;21.60;59.80;;;;;;5100094;28;20038;-56
2022/05/30 09:55:32;;;;;;;3.97;3.03;;;21.60;59.90;;;;;;5091476;28;20035;-57
2022/05/30 09:57:59;;;;;;;3.33;2.92;;;21.60;59.80;;;;;;5062629;28;20025;-55
2022/05/30 10:00:32;;;;;;;2.93;2.73;;;21.60;59.80;;;;;;5060278;28;20059;-56
2022/05/30 10:03:12;;;;;;;3.17;2.88;;;21.60;59.90;;;;;;5062932;28;20266;-56
2022/05/30 10:05:39;;;;;;;3.10;2.80;;;21.60;59.90;;;;;;5062815;28;20044;-53
2022/05/30 10:08:20;;;;;;;3.10;2.80;;;21.60;59.90;;;;;;5060942;28;20032;-55
2022/05/30 10:10:50;;;;;;;3.58;3.28;;;21.60;59.90;;;;;;5062789;28;20067;-56
2022/05/30 10:13:34;;;;;;;3.20;2.90;;;21.60;59.90;;;;;;5065606;28;20033;-56
2022/05/30 10:16:00;;;;;;;2.90;2.70;;;21.60;60.00;;;;;;5062810;28;20033;-54
2022/05/30 10:18:29;;;;;;;3.27;2.97;;;21.60;60.00;;;;;;5077743;28;20031;-53
2022/05/30 10:21:26;;;;;;;3.13;2.88;;;21.50;59.90;;;;;;5083974;28;20293;-54
2022/05/30 10:30:19;;;;;;;3.22;2.97;;;21.50;60.00;;;;;;5066986;28;20035;-55
2022/05/30 10:32:58;;;;;;;3.63;2.97;;;21.50;60.10;;;;;;5082445;28;20032;-53
2022/05/30 10:35:30;;;;;;;2.85;2.65;;;21.50;60.10;;;;;;5082468;28;20027;-53
2022/05/30 10:38:11;;;;;;;3.20;2.95;;;21.50;60.20;;;;;;5082364;28;20021;-50
2022/05/30 10:41:03;;;;;;;3.17;2.85;;;21.50;60.20;;;;;;5082417;28;20052;-53
2022/05/30 10:43:55;;;;;;;2.92;2.72;;;21.50;60.10;;;;;;5064498;28;20037;-51
2022/05/30 10:46:34;;;;;;;3.35;3.03;;;21.50;60.20;;;;;;5044186;28;20493;-51
2022/05/30 10:49:14;;;;;;;3.13;2.90;;;21.50;60.20;;;;;;5063932;28;20017;-52
2022/05/30 10:52:12;;;;;;;3.40;3.00;;;21.50;60.20;;;;;;5082313;28;20080;-53
2022/05/30 10:54:52;;;;;;;3.00;2.78;;;21.40;60.20;;;;;;5000097;28;20049;-49
2022/05/30 10:57:26;;;;;;;3.40;3.10;;;21.40;60.20;;;;;;4999856;28;20026;-50
2022/05/30 11:00:04;;;;;;;3.40;3.10;;;21.40;60.20;;;;;;4999693;28;20141;-53
2022/05/30 11:02:52;;;;;;;3.13;2.83;;;21.40;60.30;;;;;;4999523;28;20049;-54
2022/05/30 11:05:29;;;;;;;3.07;2.87;;;21.40;60.20;;;;;;4999964;28;20908;-53
2022/05/30 11:07:58;;;;;;;3.20;2.90;;;21.40;60.30;;;;;;5000196;28;20201;-51
2022/05/30 11:10:33;;;;;;;3.40;3.10;;;21.40;60.30;;;;;;4999825;28;20064;-50
2022/05/30 11:13:05;;;;;;;3.20;2.90;;;21.40;60.30;;;;;;5000150;28;20074;-52
2022/05/30 11:15:50;;;;;;;3.47;3.17;;;21.40;60.40;;;;;;4999860;28;20131;-52
2022/05/30 11:18:35;;;;;;;3.30;3.00;;;21.40;60.40;;;;;;4999978;28;20129;-52
2022/05/30 11:21:07;;;;;;;3.25;2.95;;;21.40;60.40;;;;;;4983851;28;20058;-53
2022/05/30 11:23:33;;;;;;;3.85;3.25;;;21.40;60.40;;;;;;4999933;28;20058;-53
2022/05/30 11:26:23;;;;;;;3.20;2.90;;;21.40;60.40;;;;;;4999884;28;20033;-49
2022/05/30 11:29:04;;;;;;;3.05;2.83;;;21.40;60.40;;;;;;4999396;28;20035;-49
2022/05/30 11:32:03;;;;;;;3.30;3.00;;;21.30;60.40;;;;;;5039414;28;20040;-50
2022/05/30 11:34:40;;;;;;;2.97;2.75;;;21.40;60.40;;;;;;5059840;28;20062;-51
2022/05/30 11:37:09;;;;;;;2.85;2.65;;;21.30;60.40;;;;;;5092411;28;20055;-51
2022/05/30 11:39:57;;;;;;;3.47;3.17;;;21.30;60.40;;;;;;5105554;28;20035;-51
2022/05/30 11:42:41;;;;;;;2.80;2.60;;;21.30;60.50;;;;;;5065545;28;20037;-49
2022/05/30 11:45:54;;;;;;;3.25;2.95;;;21.30;60.40;;;;;;5065193;28;20088;-49
2022/05/30 11:48:35;;;;;;;3.45;3.15;;;21.30;60.40;;;;;;4983883;28;20045;-52
2022/05/30 11:51:24;;;;;;;3.80;3.50;;;21.30;60.50;;;;;;4983535;28;20066;-51
2022/05/30 11:54:01;;;;;;;;;;;21.30;60.50;;;;;;4987523;28;20053;-49
2022/05/30 11:56:46;;;;;;;3.17;2.90;;;21.30;60.40;;;;;;4990625;28;19910;-50
2022/05/30 11:59:22;;;;;;;2.97;2.78;;;21.30;60.60;;;;;;4986600;28;20042;-49
2022/05/30 12:01:49;;;;;;;3.33;3.03;;;21.30;60.60;;;;;;4986678;28;20042;-50
2022/05/30 12:04:19;;;;;;;3.10;2.90;;;21.20;60.60;;;;;;4986719;28;20038;-54
2022/05/30 12:07:08;;;;;;;3.13;2.90;;;21.30;60.60;;;;;;4986852;28;20214;-52
2022/05/30 12:09:37;;;;;;;3.65;3.10;;;21.30;60.60;;;;;;5002404;28;20499;-52
2022/05/30 12:12:12;;;;;;;3.00;2.70;;;21.20;60.60;;;;;;5002643;28;20092;-51
2022/05/30 12:14:38;;;;;;;3.25;2.80;;;21.20;60.60;;;;;;4986411;28;20026;-56
2022/05/30 12:17:28;;;;;;;2.83;2.63;;;21.20;60.60;;;;;;5002531;28;20065;-56
2022/05/30 12:25:55;;;;;;;3.00;2.80;;;21.20;60.60;;;;;;5064534;28;20097;-50
2022/05/30 12:28:28;;;;;;;3.33;3.03;;;21.20;60.60;;;;;;5064669;28;20059;-55
2022/05/30 12:31:01;;;;;;;3.15;2.85;;;21.20;60.60;;;;;;5057021;28;20038;-55
2022/05/30 12:33:33;;;;;;;2.88;2.60;;;21.20;60.60;;;;;;5044525;28;20026;-55
2022/05/30 12:36:11;;;;;;;3.00;2.70;;;21.20;60.60;;;;;;5044620;28;20025;-54
2022/05/30 12:38:52;;;;;;;3.00;2.80;;;21.20;60.60;;;;;;5044502;28;20022;-56
2022/05/30 12:41:28;;;;;;;2.90;2.70;;;21.20;60.50;;;;;;5044029;28;20056;-56
2022/05/30 12:43:54;;;;;;;2.72;2.53;;;21.20;60.50;;;;;;5044603;28;20067;-56
2022/05/30 12:46:49;;;;;;;3.17;2.97;;;21.20;60.60;;;;;;5042238;28;20686;-55
2022/05/30 12:49:30;;;;;;;2.83;2.63;;;21.20;60.50;;;;;;5043226;28;20037;-54
2022/05/30 12:52:03;;;;;;;3.05;2.85;;;21.20;60.60;;;;;;5043969;28;20025;-54
2022/05/30 12:54:43;;;;;;;2.97;2.75;;;21.20;60.60;;;;;;5049610;28;20036;-54
2022/05/30 12:57:11;;;;;;;3.05;2.80;;;21.20;60.70;;;;;;5055172;28;20022;-51
2022/05/30 12:59:58;;;;;;;3.10;2.85;;;21.20;60.70;;;;;;5056707;28;20074;-52
2022/05/30 13:02:55;;;;;;;2.80;2.60;;;21.20;60.70;;;;;;5043915;28;20042;-54
2022/05/30 13:05:32;;;;;;;2.72;2.53;;;21.20;60.80;;;;;;5022876;28;20061;-54
2022/05/30 13:07:58;;;;;;;3.10;2.85;;;21.20;60.80;;;;;;5042465;28;20115;-53
2022/05/30 13:10:24;;;;;;;3.03;2.80;;;21.20;60.90;;;;;;5048828;28;20029;-53
2022/05/30 13:13:05;;;;;;;3.15;2.85;;;21.20;60.90;;;;;;5062455;28;20028;-54
2022/05/30 13:15:45;;;;;;;2.92;2.72;;;21.20;60.90;;;;;;5063504;28;20025;-56
2022/05/30 13:18:17;;;;;;;3.20;2.90;;;21.20;61.00;;;;;;5063824;28;20563;-57
2022/05/30 13:20:52;;;;;;;2.88;2.63;;;21.20;61.10;;;;;;5082303;28;20048;-54
2022/05/30 13:23:33;;;;;;;2.90;2.70;;;21.20;61.20;;;;;;5083507;28;20044;-56
2022/05/30 13:26:00;;;;;;;2.80;2.60;;;21.20;61.20;;;;;;5065369;28;20036;-57
2022/05/30 13:28:33;;;;;;;2.73;2.53;;;21.20;61.20;;;;;;5082813;28;20485;-57
2022/05/30 13:31:02;;;;;;;3.30;3.00;;;21.20;61.20;;;;;;5075092;28;20029;-55
2022/05/30 13:33:40;;;;;;;2.72;2.53;;;21.30;61.30;;;;;;5073360;28;20025;-56
2022/05/30 13:36:27;;;;;;;3.03;2.72;;;21.30;61.50;;;;;;5065633;28;20029;-56